createdAt,value
2018-11-05T00:00:20.600Z,66.30
2018-11-05T00:02:49.243Z,69.20
2018-11-05T00:05:16.184Z,69.10
2018-11-05T00:07:43.180Z,64.77
2018-11-05T00:10:10.183Z,66.73
2018-11-05T00:12:37.191Z,74.53
2018-11-05T00:15:04.948Z,68.10
2018-11-05T00:17:31.888Z,82.10
2018-11-05T00:19:58.843Z,79.37
2018-11-05T00:22:25.793Z,73.90
2018-11-05T00:24:52.731Z,74.97
2018-11-05T00:27:19.776Z,65.80
2018-11-05T00:29:46.702Z,71.63
2018-11-05T00:32:13.656Z,85.97
2018-11-05T00:34:40.603Z,81.13
2018-11-05T00:37:07.593Z,74.73
2018-11-05T00:39:34.498Z,82.33
2018-11-05T00:42:01.657Z,80.70
2018-11-05T00:44:28.668Z,77.00
2018-11-05T00:46:55.583Z,83.73
2018-11-05T00:49:22.610Z,78.80
2018-11-05T00:51:49.618Z,83.57
2018-11-05T00:54:16.538Z,84.30
2018-11-05T00:56:44.200Z,86.20
2018-11-05T00:59:11.210Z,85.97
2018-11-05T01:01:38.174Z,85.70
2018-11-05T01:04:05.293Z,92.07
2018-11-05T01:06:32.234Z,82.37
2018-11-05T01:08:59.193Z,90.37
2018-11-05T01:11:26.432Z,89.63
2018-11-05T01:13:53.457Z,90.00
2018-11-05T01:16:20.427Z,84.20
2018-11-05T01:18:47.391Z,85.77
2018-11-05T01:21:14.443Z,88.60
2018-11-05T01:23:41.360Z,85.13
2018-11-05T01:26:08.276Z,93.07
2018-11-05T01:28:35.184Z,93.57
2018-11-05T01:31:02.086Z,86.93
2018-11-05T01:33:29.039Z,93.23
2018-11-05T01:35:56.014Z,87.80
2018-11-05T01:38:23.035Z,89.00
2018-11-05T01:40:49.995Z,82.40
2018-11-05T01:43:16.893Z,84.07
2018-11-05T01:45:44.473Z,82.20
2018-11-05T01:48:11.387Z,82.67
2018-11-05T01:50:38.278Z,88.40
2018-11-05T01:53:05.220Z,94.17
2018-11-05T01:55:32.144Z,96.63
2018-11-05T01:57:59.160Z,97.17
2018-11-05T02:00:26.086Z,90.63
2018-11-05T02:02:53.015Z,88.40
2018-11-05T02:05:20.381Z,87.20
2018-11-05T02:07:47.408Z,109.80
2018-11-05T02:10:15.648Z,105.40
2018-11-05T02:12:42.583Z,113.97
2018-11-05T02:15:10.035Z,103.83
2018-11-05T02:17:37.771Z,101.57
2018-11-05T02:20:05.251Z,110.20
2018-11-05T02:22:32.163Z,110.63
2018-11-05T02:24:59.073Z,107.50
2018-11-05T02:27:26.297Z,102.17
2018-11-05T02:29:53.158Z,107.87
2018-11-05T02:32:20.076Z,104.50
2018-11-05T02:34:47.001Z,94.03
2018-11-05T02:37:14.796Z,100.73
2018-11-05T02:39:42.995Z,98.17
2018-11-05T02:42:10.460Z,103.67
2018-11-05T02:44:37.622Z,96.70
2018-11-05T02:47:04.784Z,95.77
2018-11-05T02:49:31.921Z,95.17
2018-11-05T02:51:59.675Z,97.13
2018-11-05T02:54:26.566Z,101.87
2018-11-05T02:56:54.056Z,98.03
2018-11-05T02:59:20.987Z,91.77
2018-11-05T03:01:47.904Z,93.57
2018-11-05T03:04:14.839Z,98.60
2018-11-05T03:06:41.751Z,92.10
2018-11-05T03:09:10.207Z,86.17
2018-11-05T03:11:37.259Z,90.90
2018-11-05T03:14:04.566Z,85.97
2018-11-05T03:16:31.478Z,86.97
2018-11-05T03:18:58.370Z,81.40
2018-11-05T03:21:25.333Z,88.80
2018-11-05T03:23:52.326Z,91.63
2018-11-05T03:26:19.250Z,93.43
2018-11-05T03:28:46.180Z,98.33
2018-11-05T03:31:13.137Z,92.62
2018-11-05T03:33:40.090Z,86.63
2018-11-05T03:36:07.016Z,85.53
2018-11-05T03:38:34.034Z,99.07
2018-11-05T03:41:00.989Z,88.93
2018-11-05T03:43:27.881Z,97.67
2018-11-05T03:45:54.814Z,87.27
2018-11-05T03:48:21.730Z,94.57
2018-11-05T03:50:48.656Z,90.43
2018-11-05T03:53:15.581Z,85.73
2018-11-05T03:55:42.875Z,83.40
2018-11-05T03:58:09.704Z,82.23
2018-11-05T04:00:36.644Z,83.93
2018-11-05T04:03:03.769Z,82.60
2018-11-05T04:05:30.623Z,83.53
2018-11-05T04:07:57.555Z,76.90
2018-11-05T04:10:24.472Z,89.37
2018-11-05T04:12:51.406Z,83.40
2018-11-05T04:15:18.668Z,88.23
2018-11-05T04:17:45.540Z,81.70
2018-11-05T04:20:13.526Z,79.73
2018-11-05T04:22:40.986Z,82.87
2018-11-05T04:25:07.939Z,85.53
2018-11-05T04:27:34.905Z,75.83
2018-11-05T04:30:01.834Z,79.00
2018-11-05T04:32:28.813Z,77.80
2018-11-05T04:34:55.759Z,82.47
2018-11-05T04:37:22.721Z,78.03
2018-11-05T04:39:49.635Z,74.10
2018-11-05T04:42:16.631Z,74.10
2018-11-05T04:44:43.538Z,74.40
2018-11-05T04:47:10.485Z,67.93
2018-11-05T04:49:37.458Z,73.80
2018-11-05T04:52:04.813Z,64.87
2018-11-05T04:54:31.749Z,70.43
2018-11-05T04:56:58.776Z,69.47
2018-11-05T04:59:25.716Z,67.37
2018-11-05T05:01:52.653Z,64.77
2018-11-05T05:04:19.612Z,65.93
2018-11-05T05:06:46.559Z,74.90
2018-11-05T05:09:13.450Z,67.77
2018-11-05T05:11:41.258Z,81.73
2018-11-05T05:14:08.364Z,71.00
2018-11-05T05:16:35.766Z,72.30
2018-11-05T05:19:02.926Z,76.97
2018-11-05T05:21:30.005Z,69.00
2018-11-05T05:23:57.009Z,81.03
2018-11-05T05:26:24.253Z,82.53
2018-11-05T05:28:51.308Z,80.10
2018-11-05T05:31:18.253Z,74.63
2018-11-05T05:33:45.984Z,74.80
2018-11-05T05:36:12.941Z,74.67
2018-11-05T05:38:39.894Z,76.83
2018-11-05T05:41:07.073Z,76.53
2018-11-05T05:43:34.064Z,91.80
2018-11-05T05:46:01.147Z,102.77
2018-11-05T05:48:28.220Z,83.47
2018-11-05T05:50:55.192Z,73.87
2018-11-05T05:53:22.131Z,78.93
2018-11-05T05:55:49.190Z,82.27
2018-11-05T06:03:14.872Z,68.50
2018-11-05T06:05:41.892Z,69.87
2018-11-05T06:08:08.901Z,70.23
2018-11-05T06:10:36.496Z,71.90
2018-11-05T06:13:03.507Z,72.50
2018-11-05T06:15:30.542Z,72.53
2018-11-05T06:17:57.545Z,70.00
2018-11-05T06:20:24.583Z,74.97
2018-11-05T06:22:51.579Z,79.47
2018-11-05T06:25:18.715Z,69.37
2018-11-05T06:27:45.694Z,91.73
2018-11-05T06:30:14.940Z,86.03
2018-11-05T06:32:42.530Z,89.23
2018-11-05T06:35:10.421Z,70.70
2018-11-05T06:37:37.570Z,69.87
2018-11-05T06:40:05.162Z,78.47
2018-11-05T06:42:32.128Z,74.80
2018-11-05T06:44:59.243Z,69.27
2018-11-05T06:47:26.360Z,66.47
2018-11-05T06:49:53.328Z,66.60
2018-11-05T06:52:20.392Z,68.50
2018-11-05T06:54:53.478Z,67.40
2018-11-05T06:57:20.526Z,67.63
2018-11-05T06:59:47.504Z,63.30
2018-11-05T07:02:14.485Z,65.47
2018-11-05T07:04:41.522Z,70.80
2018-11-05T07:07:08.487Z,59.23
2018-11-05T07:09:35.588Z,67.47
2018-11-05T07:12:02.593Z,66.23
2018-11-05T07:14:29.698Z,70.00
2018-11-05T07:16:56.745Z,71.80
2018-11-05T07:19:23.921Z,62.30
2018-11-05T07:21:50.887Z,65.63
2018-11-05T07:24:17.899Z,62.70
2018-11-05T07:26:44.978Z,63.17
2018-11-05T07:29:11.976Z,69.57
2018-11-05T07:31:38.972Z,68.17
2018-11-05T07:34:06.225Z,58.83
2018-11-05T07:36:33.065Z,62.60
2018-11-05T07:39:00.079Z,66.47
2018-11-05T07:41:27.084Z,61.73
2018-11-05T07:43:54.056Z,62.50
2018-11-05T07:46:21.109Z,67.30
2018-11-05T07:48:48.147Z,67.40
2018-11-05T07:51:15.218Z,65.63
2018-11-05T07:53:42.183Z,59.53
2018-11-05T07:56:09.284Z,61.17
2018-11-05T07:58:36.382Z,54.97
2018-11-05T08:01:03.765Z,60.13
2018-11-05T08:03:32.211Z,61.57
2018-11-05T08:05:59.225Z,64.23
2018-11-05T08:08:26.316Z,60.97
2018-11-05T08:10:53.270Z,60.53
2018-11-05T08:13:20.258Z,60.97
2018-11-05T08:15:47.304Z,65.63
2018-11-05T08:18:14.353Z,57.57
2018-11-05T08:20:41.364Z,68.77
2018-11-05T08:23:08.385Z,62.90
2018-11-05T08:25:35.500Z,57.50
2018-11-05T08:28:02.563Z,62.00
2018-11-05T08:30:30.235Z,57.90
2018-11-05T08:32:57.281Z,61.40
2018-11-05T08:35:24.409Z,64.90
2018-11-05T08:37:51.863Z,58.60
2018-11-05T08:40:21.201Z,61.63
2018-11-05T08:42:48.940Z,59.33
2018-11-05T08:45:18.163Z,61.10
2018-11-05T08:47:45.171Z,58.07
2018-11-05T08:50:13.329Z,56.60
2018-11-05T08:52:40.341Z,60.87
2018-11-05T08:55:09.325Z,61.00
2018-11-05T08:57:36.328Z,68.83
2018-11-05T09:00:17.993Z,98.10
2018-11-05T09:02:45.921Z,59.07
2018-11-05T09:05:13.302Z,55.53
2018-11-05T09:07:40.284Z,59.10
2018-11-05T09:10:07.609Z,61.07
2018-11-05T09:12:34.927Z,60.97
2018-11-05T09:15:01.972Z,64.57
2018-11-05T09:17:29.021Z,61.87
2018-11-05T09:19:56.027Z,60.67
2018-11-05T09:22:23.180Z,57.20
2018-11-05T09:24:50.177Z,65.73
2018-11-05T09:27:17.182Z,60.73
2018-11-05T09:29:44.220Z,55.47
2018-11-05T09:32:11.209Z,60.60
2018-11-05T09:34:38.194Z,61.73
2018-11-05T09:37:05.187Z,56.57
2018-11-05T09:39:32.282Z,61.17
2018-11-05T09:41:59.360Z,75.10
2018-11-05T09:44:26.624Z,61.37
2018-11-05T09:46:53.674Z,61.97
2018-11-05T09:49:22.262Z,63.57
2018-11-05T09:51:49.308Z,57.57
2018-11-05T09:54:16.397Z,61.37
2018-11-05T09:56:43.440Z,60.40
2018-11-05T09:59:10.413Z,63.13
2018-11-05T10:01:37.428Z,59.27
2018-11-05T10:04:04.850Z,55.33
2018-11-05T10:06:31.781Z,60.17
2018-11-05T10:08:58.789Z,58.37
2018-11-05T10:11:26.135Z,63.90
2018-11-05T10:13:53.161Z,58.83
2018-11-05T10:16:20.292Z,58.10
2018-11-05T10:18:47.216Z,55.27
2018-11-05T10:21:14.272Z,58.20
2018-11-05T10:23:41.241Z,56.20
2018-11-05T10:26:08.355Z,53.87
2018-11-05T10:28:35.343Z,55.50
2018-11-05T10:31:02.516Z,50.80
2018-11-05T10:33:29.741Z,56.37
2018-11-05T10:35:57.441Z,61.73
2018-11-05T10:38:24.993Z,55.70
2018-11-05T10:40:52.025Z,59.90
2018-11-05T10:43:19.054Z,56.07
2018-11-05T10:45:46.170Z,51.13
2018-11-05T10:48:13.373Z,54.75
2018-11-05T10:50:40.703Z,55.67
2018-11-05T10:53:07.697Z,64.10
2018-11-05T10:55:34.768Z,56.57
2018-11-05T10:58:01.857Z,53.25
2018-11-05T11:00:34.596Z,59.67
2018-11-05T11:03:07.369Z,55.93
2018-11-05T11:05:34.400Z,53.15
2018-11-05T11:08:02.479Z,58.52
2018-11-05T11:10:30.081Z,68.87
2018-11-05T11:12:57.382Z,50.50
2018-11-05T11:15:24.618Z,64.55
2018-11-05T11:17:51.817Z,65.67
2018-11-05T11:20:18.939Z,64.23
2018-11-05T11:22:45.917Z,67.95
2018-11-05T11:25:12.996Z,64.77
2018-11-05T11:27:40.159Z,61.77
2018-11-05T11:30:08.803Z,55.10
2018-11-05T11:32:35.940Z,60.07
2018-11-05T11:35:03.256Z,59.03
2018-11-05T11:37:30.405Z,62.35
2018-11-05T11:39:57.460Z,62.48
2018-11-05T11:42:24.924Z,56.17
2018-11-05T11:44:52.036Z,55.78
2018-11-05T11:47:19.954Z,60.33
2018-11-05T11:49:46.990Z,49.75
2018-11-05T11:52:14.047Z,59.90
2018-11-05T11:54:41.174Z,52.93
2018-11-05T11:57:08.361Z,52.93
2018-11-05T11:59:35.653Z,54.10
2018-11-05T12:02:08.326Z,52.83
2018-11-05T12:04:35.489Z,55.50
2018-11-05T12:07:02.554Z,47.20
2018-11-05T12:09:29.620Z,54.08
2018-11-05T12:11:56.783Z,57.73
2018-11-05T12:14:23.965Z,66.50
2018-11-05T12:16:51.068Z,51.73
2018-11-05T12:19:18.225Z,55.35
2018-11-05T12:21:45.260Z,46.15
2018-11-05T12:24:12.385Z,48.15
2018-11-05T12:26:39.638Z,50.03
2018-11-05T12:29:06.752Z,52.60
2018-11-05T12:31:33.830Z,52.25
2018-11-05T12:34:00.900Z,45.05
2018-11-05T12:36:27.993Z,47.43
2018-11-05T12:38:55.181Z,55.00
2018-11-05T12:41:22.057Z,51.28
2018-11-05T12:43:49.118Z,50.48
2018-11-05T12:46:16.165Z,47.78
2018-11-05T12:48:43.251Z,47.58
2018-11-05T12:51:10.315Z,46.53
2018-11-05T12:53:37.419Z,53.30
2018-11-05T12:56:05.111Z,50.92
2018-11-05T12:58:32.175Z,48.25
2018-11-05T13:00:59.279Z,44.85
2018-11-05T13:03:26.346Z,46.55
2018-11-05T13:05:53.515Z,49.15
2018-11-05T13:08:20.513Z,61.18
2018-11-05T13:10:47.782Z,48.53
2018-11-05T13:13:14.876Z,47.33
2018-11-05T13:15:41.925Z,45.75
2018-11-05T13:18:08.969Z,46.73
2018-11-05T13:20:35.984Z,46.60
2018-11-05T13:23:03.021Z,45.20
2018-11-05T13:25:30.061Z,48.78
2018-11-05T13:27:58.856Z,48.85
2018-11-05T13:30:25.986Z,47.70
2018-11-05T13:32:53.007Z,54.00
2018-11-05T13:35:20.878Z,50.73
2018-11-05T13:40:40.173Z,55.88
2018-11-05T13:43:07.297Z,65.15
2018-11-05T13:45:34.721Z,64.20
2018-11-05T13:48:01.887Z,59.90
2018-11-05T13:50:29.233Z,50.38
2018-11-05T13:52:55.787Z,52.80
2018-11-05T13:55:22.951Z,49.27
2018-11-05T13:57:50.045Z,48.30
2018-11-05T14:00:18.469Z,46.23
2018-11-05T14:02:45.628Z,48.23
2018-11-05T14:05:12.869Z,45.55
2018-11-05T14:07:39.954Z,51.28
2018-11-05T14:10:11.368Z,48.00
2018-11-05T14:12:38.491Z,47.73
2018-11-05T14:15:05.663Z,43.40
2018-11-05T14:17:32.833Z,54.95
2018-11-05T14:20:00.058Z,48.58
2018-11-05T14:22:27.122Z,42.58
2018-11-05T14:24:54.178Z,48.87
2018-11-05T14:27:21.386Z,48.08
2018-11-05T14:29:48.851Z,48.02
2018-11-05T14:32:15.628Z,49.33
2018-11-05T14:34:42.556Z,50.17
2018-11-05T14:37:09.696Z,47.93
2018-11-05T14:39:36.743Z,46.25
2018-11-05T14:42:03.799Z,49.58
2018-11-05T14:44:30.815Z,44.18
2018-11-05T14:46:57.919Z,49.38
2018-11-05T14:49:24.954Z,49.00
2018-11-05T14:51:52.084Z,43.87
2018-11-05T14:54:19.151Z,44.42
2018-11-05T14:56:46.228Z,44.75
2018-11-05T14:59:13.267Z,46.70
2018-11-05T15:01:40.286Z,42.93
2018-11-05T15:04:07.381Z,46.18
2018-11-05T15:06:34.474Z,48.78
2018-11-05T15:09:01.537Z,44.23
2018-11-05T15:11:28.549Z,48.40
2018-11-05T15:13:55.536Z,39.40
2018-11-05T15:16:22.547Z,62.03
2018-11-05T15:18:49.966Z,46.83
2018-11-05T15:21:16.780Z,48.75
2018-11-05T15:23:43.826Z,38.65
2018-11-05T15:26:10.961Z,47.50
2018-11-05T15:28:38.010Z,51.73
2018-11-05T15:31:05.420Z,49.53
2018-11-05T15:33:38.980Z,44.60
2018-11-05T15:36:06.062Z,42.13
2018-11-05T15:38:33.080Z,41.98
2018-11-05T15:41:00.136Z,41.23
2018-11-05T15:43:27.249Z,40.60
2018-11-05T15:45:54.259Z,52.23
2018-11-05T15:48:21.281Z,43.00
2018-11-05T15:50:49.287Z,46.02
2018-11-05T15:53:16.793Z,35.73
2018-11-05T15:55:43.522Z,40.05
2018-11-05T15:58:10.492Z,42.38
2018-11-05T16:00:37.431Z,39.95
2018-11-05T16:03:05.109Z,42.60
2018-11-05T16:05:32.807Z,44.50
2018-11-05T16:07:59.887Z,46.63
2018-11-05T16:10:26.972Z,49.98
2018-11-05T16:12:54.019Z,50.12
2018-11-05T16:15:21.060Z,43.10
2018-11-05T16:17:48.073Z,41.68
2018-11-05T16:20:25.903Z,49.03
2018-11-05T16:22:53.161Z,37.00
2018-11-05T16:25:20.224Z,44.20
2018-11-05T16:27:47.338Z,41.25
2018-11-05T16:30:15.710Z,51.45
2018-11-05T16:32:43.595Z,51.23
2018-11-05T16:35:10.777Z,41.88
2018-11-05T16:37:37.836Z,48.95
2018-11-05T16:40:06.884Z,42.13
2018-11-05T16:42:33.959Z,45.80
2018-11-05T16:45:00.956Z,41.30
2018-11-05T16:47:27.925Z,53.90
2018-11-05T16:49:55.092Z,54.53
2018-11-05T16:52:22.138Z,51.70
2018-11-05T16:54:49.423Z,52.08
2018-11-05T16:57:16.495Z,46.60
2018-11-05T16:59:43.939Z,48.15
2018-11-05T17:02:13.358Z,61.50
2018-11-05T17:04:40.386Z,66.55
2018-11-05T17:07:07.820Z,45.23
2018-11-05T17:09:34.888Z,44.10
2018-11-05T17:12:02.220Z,64.62
2018-11-05T17:14:29.361Z,54.53
2018-11-05T17:16:56.479Z,47.93
2018-11-05T17:19:23.692Z,57.60
2018-11-05T17:21:50.980Z,56.68
2018-11-05T17:24:18.418Z,49.80
2018-11-05T17:26:45.683Z,40.95
2018-11-05T17:29:12.736Z,38.30
2018-11-05T17:31:39.700Z,53.58
2018-11-05T17:34:07.413Z,48.90
2018-11-05T17:36:34.439Z,68.35
2018-11-05T17:39:01.474Z,51.92
2018-11-05T17:41:28.463Z,46.00
2018-11-05T17:43:55.470Z,46.73
2018-11-05T17:46:22.528Z,45.95
2018-11-05T17:48:49.543Z,46.10
2018-11-05T17:51:16.567Z,41.63
2018-11-05T17:53:43.607Z,48.25
2018-11-05T17:56:10.749Z,48.13
2018-11-05T17:58:37.945Z,43.63
2018-11-05T18:01:04.934Z,48.17
2018-11-05T18:03:31.948Z,45.10
2018-11-05T18:05:58.961Z,41.00
2018-11-05T18:08:25.940Z,40.63
2018-11-05T18:10:53.834Z,40.63
2018-11-05T18:13:20.736Z,41.93
2018-11-05T18:15:47.768Z,42.67
2018-11-05T18:18:14.674Z,41.97
2018-11-05T18:20:41.582Z,44.20
2018-11-05T18:23:08.495Z,44.60
2018-11-05T18:25:35.400Z,42.47
2018-11-05T18:28:02.325Z,48.30
2018-11-05T18:30:29.238Z,43.37
2018-11-05T18:36:02.950Z,39.05
2018-11-05T18:38:29.929Z,44.40
2018-11-05T18:40:56.869Z,41.93
2018-11-05T18:43:24.812Z,40.10
2018-11-05T18:45:51.731Z,42.67
2018-11-05T18:48:18.647Z,39.77
2018-11-05T18:50:45.615Z,42.10
2018-11-05T18:53:12.539Z,45.27
2018-11-05T18:55:39.477Z,42.10
2018-11-05T18:58:06.442Z,44.13
2018-11-05T19:00:33.412Z,50.67
2018-11-05T19:03:00.370Z,37.17
2018-11-05T19:05:28.457Z,39.03
2018-11-05T19:07:55.458Z,36.38
2018-11-05T19:10:22.404Z,43.93
2018-11-05T19:12:50.187Z,39.20
2018-11-05T19:15:17.196Z,38.77
2018-11-05T19:17:44.917Z,45.83
2018-11-05T19:20:12.128Z,41.77
2018-11-05T19:22:39.991Z,33.83
2018-11-05T19:25:08.077Z,39.60
2018-11-05T19:27:35.144Z,34.77
2018-11-05T19:30:03.032Z,36.63
2018-11-05T19:32:29.975Z,37.87
2018-11-05T19:34:56.925Z,36.43
2018-11-05T19:37:23.938Z,33.77
2018-11-05T19:39:50.902Z,38.17
2018-11-05T19:42:17.972Z,35.77
2018-11-05T19:44:44.952Z,39.10
2018-11-05T19:47:12.220Z,36.50
2018-11-05T19:49:39.297Z,34.37
2018-11-05T19:52:06.321Z,32.63
2018-11-05T19:54:33.318Z,31.90
2018-11-05T19:57:00.457Z,35.03
2018-11-05T19:59:27.510Z,35.30
2018-11-05T20:01:54.614Z,30.20
2018-11-05T20:04:21.729Z,36.48
2018-11-05T20:06:48.730Z,36.15
2018-11-05T20:09:15.812Z,41.40
2018-11-05T20:11:42.885Z,34.40
2018-11-05T20:14:09.945Z,30.63
2018-11-05T20:16:37.138Z,27.30
2018-11-05T20:19:04.285Z,32.88
2018-11-05T20:21:31.259Z,29.93
2018-11-05T20:23:58.309Z,28.87
2018-11-05T20:26:25.795Z,33.88
2018-11-05T20:28:52.828Z,33.30
2018-11-05T20:31:20.269Z,32.37
2018-11-05T20:33:47.225Z,30.77
2018-11-05T20:36:14.361Z,31.47
2018-11-05T20:38:41.354Z,45.57
2018-11-05T20:41:08.485Z,28.07
2018-11-05T20:43:35.596Z,31.53
2018-11-05T20:46:02.610Z,29.53
2018-11-05T20:48:29.618Z,30.30
2018-11-05T20:50:56.662Z,33.63
2018-11-05T20:53:23.728Z,29.77
2018-11-05T20:55:50.717Z,31.00
2018-11-05T20:58:17.931Z,36.27
2018-11-05T21:00:45.025Z,29.00
2018-11-05T21:03:12.028Z,29.43
2018-11-05T21:05:39.085Z,32.93
2018-11-05T21:08:06.108Z,27.60
2018-11-05T21:10:33.189Z,32.13
2018-11-05T21:13:00.238Z,28.60
2018-11-05T21:15:27.293Z,29.57
2018-11-05T21:17:54.421Z,28.83
2018-11-05T21:20:21.361Z,26.83
2018-11-05T21:22:48.982Z,27.83
2018-11-05T21:25:15.854Z,26.90
2018-11-05T21:27:43.470Z,27.93
2018-11-05T21:30:12.372Z,27.55
2018-11-05T21:32:39.557Z,32.33
2018-11-05T21:35:08.392Z,22.57
2018-11-05T21:37:35.810Z,27.07
2018-11-05T21:40:02.860Z,23.27
2018-11-05T21:42:30.392Z,26.70
2018-11-05T21:44:57.405Z,26.40
2018-11-05T21:47:24.641Z,28.13
2018-11-05T21:49:51.578Z,32.73
2018-11-05T21:52:18.564Z,25.90
2018-11-05T21:54:45.640Z,27.75
2018-11-05T21:57:12.630Z,26.70
2018-11-05T21:59:39.613Z,31.50
2018-11-05T22:02:06.627Z,27.23
2018-11-05T22:04:33.564Z,32.77
2018-11-05T22:07:00.546Z,28.23
2018-11-05T22:09:27.535Z,24.00
2018-11-05T22:11:54.541Z,25.87
2018-11-05T22:14:22.241Z,29.42
2018-11-05T22:16:49.236Z,24.80
2018-11-05T22:19:16.239Z,25.43
2018-11-05T22:21:43.222Z,23.00
2018-11-05T22:29:05.298Z,28.90
2018-11-05T22:31:32.325Z,22.40
2018-11-05T22:33:59.297Z,24.17
2018-11-05T22:36:26.284Z,23.67
2018-11-05T22:41:25.317Z,22.80
2018-11-05T22:43:52.407Z,23.98
2018-11-05T22:46:19.429Z,22.53
2018-11-05T22:48:46.445Z,22.30
2018-11-05T22:51:13.729Z,23.23
2018-11-05T22:53:41.227Z,26.50
2018-11-05T22:56:08.213Z,19.83
2018-11-05T22:58:35.161Z,22.35
2018-11-05T23:01:05.039Z,24.05
